Airfield :
LOGIN :

Register | Disclaimer

   EN    FR    IT 

 










Legend :    VFR   Marginal VFR   IFR   Intensive IFR   Very Intensive IFR
Visi :
Ceiling :
>= 8 km
>= 3000ft
5 to 8 km
1000 to 3000 ft
1500m to 5 km
500 to 1000 ft
800 to 1500m
200 to 500 ft
< 800m
< 200 ft
Symbols :   Thunderstorms  Fog  Heavy snow  Heavy precipitations  Wind > 20 kt
SIGMETs :     Misc.  Thunderstorms  Icing  Turbulence  Mountain Waves  Volcanic Ashes







- Airport Elevation : 302 ft
- IATA code : MAH


LEMH - Menorca

CURRENT METAR :
  • 230130Z AUTO 35005KT 9999 FEW021/// 20/18 Q1019

EXPIRED METARs :
  • 230100Z AUTO 33005KT CAVOK 20/18 Q1019
  • 230030Z AUTO 31003KT CAVOK 20/19 Q1019
  • 230000Z AUTO 34005KT CAVOK 20/19 Q1019
  • 222330Z AUTO 35005KT CAVOK 20/19 Q1019
  • 222300Z 34003KT 9999 SCT018 20/19 Q1019

TAF TAF LEMH
Valid from the 22 at 21:00 until the 23 at 21:00 UTC


222000Z 2221/2321 36007KT 9999 FEW030 TX29/2312Z TN21/2305Z
BECMG 2308/2310 05010KT
No reported NOTAMs for that airfield.



MET'MAP, your aeronautical weather chart ! - Copyright ORBIFLY December 2007 - Disclaimer

ORBIFLY MET'MAP TEAM :

Programming & Development : Alexandra Zaïnal
Concept & Development : Baudouin d'Aumeries
Co-Development & Prog : Marc-Olivier Méhu
Technical & hardware support : Manuel Goepfert

Contact : metmap@orbifly.com




SOURCES & CREDITS :

   NOAA